Time;durP1;ratioP1;P1;durP2;ratioP2;P2;SDS_P1;SDS_P2;PMS_P1;PMS_P2;Temp;Humidity;BMP_temperature;BMP_pressure;BME280_temperature;BME280_humidity;BME280_pressure;Samples;Min_cycle;Max_cycle;Signal;HPM_P1;HPM_P2
2023/10/02 00:01:06;;;;;;;11.27;7.63;;;;;;;;;;4895579;29;20811;-73
2023/10/02 00:03:33;;;;;;;12.10;7.80;;;;;;;;;;4894617;29;20274;-73
2023/10/02 00:06:00;;;;;;;12.43;7.53;;;;;;;;;;4893246;29;20748;-73
2023/10/02 00:08:42;;;;;;;12.70;7.87;;;;;;;;;;4895240;29;20671;-73
2023/10/02 00:14:22;;;;;;;11.93;7.70;;;;;;;;;;4896518;29;20219;-73
2023/10/02 00:17:03;;;;;;;13.37;7.93;;;;;;;;;;4897025;29;20191;-73
2023/10/02 00:19:35;;;;;;;11.67;7.13;;;;;;;;;;4894423;29;20214;-73
2023/10/02 00:22:07;;;;;;;12.13;7.73;;;;;;;;;;4889805;29;20688;-73
2023/10/02 00:24:35;;;;;;;13.13;8.27;;;;;;;;;;4897412;29;20203;-73
2023/10/02 00:27:03;;;;;;;11.20;7.40;;;;;;;;;;4893183;29;20187;-73
2023/10/02 00:29:30;;;;;;;11.57;7.70;;;;;;;;;;4891469;29;20232;-73
2023/10/02 00:31:56;;;;;;;14.50;7.87;;;;;;;;;;4896222;29;20186;-73
2023/10/02 00:34:32;;;;;;;13.50;8.03;;;;;;;;;;4894292;29;20214;-73
2023/10/02 00:37:12;;;;;;;13.13;7.73;;;;;;;;;;4907044;29;20182;-73
2023/10/02 00:39:39;;;;;;;11.03;7.03;;;;;;;;;;4892413;29;20556;-73
2023/10/02 00:42:24;;;;;;;12.00;8.07;;;;;;;;;;4896063;29;20567;-73
2023/10/02 00:44:55;;;;;;;13.27;8.13;;;;;;;;;;4895549;29;20191;-73
2023/10/02 00:47:38;;;;;;;12.23;8.00;;;;;;;;;;4895871;29;20246;-73
2023/10/02 00:50:10;;;;;;;10.83;7.77;;;;;;;;;;4894903;29;20215;-73
2023/10/02 00:52:40;;;;;;;12.47;7.80;;;;;;;;;;4895150;29;20184;-73
2023/10/02 00:55:08;;;;;;;13.47;8.17;;;;;;;;;;4893513;29;20195;-73
2023/10/02 00:57:37;;;;;;;11.20;7.90;;;;;;;;;;4894436;29;20310;-73
2023/10/02 01:00:06;;;;;;;13.00;7.93;;;;;;;;;;4896124;29;20302;-73
2023/10/02 01:02:36;;;;;;;10.87;7.17;;;;;;;;;;4895995;29;20527;-73
2023/10/02 01:05:03;;;;;;;13.10;7.93;;;;;;;;;;4909796;29;20207;-73
2023/10/02 01:07:33;;;;;;;11.97;7.90;;;;;;;;;;4892296;29;20183;-73
2023/10/02 01:10:07;;;;;;;12.43;7.50;;;;;;;;;;4891742;29;20211;-73
2023/10/02 01:12:43;;;;;;;11.80;7.87;;;;;;;;;;4895317;29;20238;-73
2023/10/02 01:15:12;;;;;;;13.70;8.10;;;;;;;;;;4895038;29;20191;-73
2023/10/02 01:17:48;;;;;;;12.63;7.50;;;;;;;;;;4892054;29;20212;-73
2023/10/02 01:20:20;;;;;;;11.17;7.03;;;;;;;;;;4893566;29;20223;-73
2023/10/02 01:22:52;;;;;;;14.27;8.30;;;;;;;;;;4893061;29;20601;-73
2023/10/02 01:25:24;;;;;;;10.43;7.13;;;;;;;;;;4895320;29;20247;-73
2023/10/02 01:27:55;;;;;;;9.93;7.07;;;;;;;;;;4890869;29;20251;-73
2023/10/02 01:30:23;;;;;;;11.60;7.27;;;;;;;;;;4890548;29;20435;-73
2023/10/02 01:33:06;;;;;;;11.70;7.60;;;;;;;;;;4896128;29;20283;-73
2023/10/02 01:35:35;;;;;;;12.73;7.20;;;;;;;;;;4890230;29;20253;-73
2023/10/02 01:38:01;;;;;;;11.70;7.20;;;;;;;;;;4893287;29;20339;-73
2023/10/02 01:40:33;;;;;;;11.50;7.20;;;;;;;;;;4894199;29;20274;-73
2023/10/02 01:43:13;;;;;;;11.63;7.10;;;;;;;;;;4889493;29;20259;-73
2023/10/02 01:45:43;;;;;;;12.57;7.20;;;;;;;;;;4895412;29;20187;-73
2023/10/02 01:48:13;;;;;;;12.47;7.60;;;;;;;;;;4892187;29;20191;-73
2023/10/02 01:50:40;;;;;;;11.57;7.50;;;;;;;;;;4893762;29;20244;-73
2023/10/02 01:53:06;;;;;;;12.30;7.57;;;;;;;;;;4893251;29;20561;-73
2023/10/02 01:55:35;;;;;;;10.20;7.07;;;;;;;;;;4895429;29;20183;-73
2023/10/02 01:58:16;;;;;;;10.13;6.93;;;;;;;;;;4890095;29;20211;-73
2023/10/02 02:00:45;;;;;;;11.23;7.27;;;;;;;;;;4890313;29;20242;-73
2023/10/02 02:03:14;;;;;;;10.17;7.23;;;;;;;;;;4893810;29;20206;-73
2023/10/02 02:05:44;;;;;;;11.83;7.40;;;;;;;;;;4892347;29;20227;-73
2023/10/02 02:08:23;;;;;;;11.03;7.53;;;;;;;;;;4893221;29;20210;-73
2023/10/02 02:10:53;;;;;;;10.47;6.80;;;;;;;;;;4894230;29;20276;-73
2023/10/02 02:13:21;;;;;;;10.47;7.10;;;;;;;;;;4890553;29;20196;-73
2023/10/02 02:15:51;;;;;;;10.87;6.83;;;;;;;;;;4894297;29;20191;-73
2023/10/02 02:18:21;;;;;;;9.57;6.43;;;;;;;;;;4891877;29;20695;-73
2023/10/02 02:20:59;;;;;;;10.33;7.10;;;;;;;;;;4891353;29;20222;-73
2023/10/02 02:23:30;;;;;;;11.53;7.47;;;;;;;;;;4894005;29;20619;-73
2023/10/02 02:25:56;;;;;;;11.33;7.17;;;;;;;;;;4893155;29;20179;-73
2023/10/02 02:28:22;;;;;;;13.83;7.50;;;;;;;;;;4892974;29;20279;-73
2023/10/02 02:30:49;;;;;;;11.27;7.43;;;;;;;;;;4894183;29;20630;-73
2023/10/02 02:33:15;;;;;;;11.43;7.40;;;;;;;;;;4893687;29;20282;-73
2023/10/02 02:35:44;;;;;;;12.20;7.40;;;;;;;;;;4893901;29;20217;-73
2023/10/02 02:38:16;;;;;;;12.63;7.67;;;;;;;;;;4894237;29;20211;-73
2023/10/02 02:40:42;;;;;;;12.07;7.30;;;;;;;;;;4893686;29;20231;-73
2023/10/02 02:43:13;;;;;;;10.93;7.77;;;;;;;;;;4891978;29;20278;-73
2023/10/02 02:45:39;;;;;;;10.23;7.33;;;;;;;;;;4893903;29;20212;-72
2023/10/02 02:48:10;;;;;;;12.93;7.50;;;;;;;;;;4891978;29;20279;-73
2023/10/02 02:50:40;;;;;;;11.77;7.83;;;;;;;;;;4891876;29;20289;-73
2023/10/02 02:53:16;;;;;;;11.60;7.93;;;;;;;;;;4892729;29;20191;-73
2023/10/02 02:55:42;;;;;;;12.00;7.57;;;;;;;;;;4908392;29;20878;-73
2023/10/02 02:58:09;;;;;;;12.23;7.60;;;;;;;;;;4894092;29;20219;-73
2023/10/02 03:00:35;;;;;;;12.37;7.53;;;;;;;;;;4874938;29;20861;-73
2023/10/02 03:03:02;;;;;;;13.73;7.60;;;;;;;;;;4893179;29;20219;-73
2023/10/02 03:05:40;;;;;;;11.70;7.77;;;;;;;;;;4892471;29;20690;-73
2023/10/02 03:08:08;;;;;;;11.77;7.07;;;;;;;;;;4890493;29;20223;-73
2023/10/02 03:10:37;;;;;;;12.50;7.90;;;;;;;;;;4889877;29;20226;-73
2023/10/02 03:13:03;;;;;;;11.37;8.13;;;;;;;;;;4875454;29;20187;-73
2023/10/02 03:15:48;;;;;;;13.90;7.90;;;;;;;;;;4892255;29;20214;-73
2023/10/02 03:18:36;;;;;;;12.07;7.70;;;;;;;;;;4891184;29;20695;-73
2023/10/02 03:23:38;;;;;;;13.20;7.83;;;;;;;;;;4893860;29;20209;-73
2023/10/02 03:26:07;;;;;;;13.70;7.57;;;;;;;;;;4896591;29;20190;-73
2023/10/02 03:28:34;;;;;;;11.90;7.70;;;;;;;;;;4897976;29;20238;-73
2023/10/02 03:31:00;;;;;;;10.67;7.00;;;;;;;;;;4892636;29;20924;-73
2023/10/02 03:33:31;;;;;;;13.00;7.77;;;;;;;;;;4897434;29;20191;-73
2023/10/02 03:35:58;;;;;;;11.73;7.13;;;;;;;;;;4896915;29;20681;-73
2023/10/02 03:38:25;;;;;;;12.87;7.87;;;;;;;;;;4897139;29;20297;-73
2023/10/02 03:40:54;;;;;;;11.20;7.43;;;;;;;;;;4892261;29;20213;-73
2023/10/02 03:43:31;;;;;;;10.77;7.70;;;;;;;;;;4896447;29;20203;-73
2023/10/02 03:45:59;;;;;;;13.27;7.33;;;;;;;;;;4897093;29;20191;-73
2023/10/02 03:48:27;;;;;;;11.37;7.30;;;;;;;;;;4895776;29;20782;-73
2023/10/02 03:50:53;;;;;;;9.87;6.80;;;;;;;;;;4897542;29;20242;-73
2023/10/02 03:53:28;;;;;;;12.10;7.70;;;;;;;;;;4897902;29;20199;-73
2023/10/02 03:56:36;;;;;;;12.00;6.60;;;;;;;;;;4896117;29;20254;-73
2023/10/02 03:58:51;;;;;;;9.60;6.63;;;;;;;;;;4895984;29;20223;-73
2023/10/02 04:01:30;;;;;;;10.80;6.67;;;;;;;;;;4894950;29;20704;-73
2023/10/02 04:06:45;;;;;;;10.33;6.57;;;;;;;;;;4895821;29;20230;-73
2023/10/02 04:11:42;;;;;;;11.20;6.97;;;;;;;;;;4896069;29;20187;-73
2023/10/02 04:14:17;;;;;;;11.03;6.97;;;;;;;;;;4896927;29;20246;-73
2023/10/02 04:17:01;;;;;;;10.20;7.07;;;;;;;;;;4894799;29;20187;-73
2023/10/02 04:19:27;;;;;;;11.07;7.53;;;;;;;;;;4896191;29;20222;-73
2023/10/02 04:21:53;;;;;;;13.20;7.87;;;;;;;;;;4895246;29;20187;-73
2023/10/02 04:24:26;;;;;;;10.67;7.77;;;;;;;;;;4896185;29;20180;-73
2023/10/02 04:27:08;;;;;;;12.17;7.77;;;;;;;;;;4893540;29;20270;-73
2023/10/02 04:29:38;;;;;;;12.03;7.73;;;;;;;;;;4893464;29;20217;-73
2023/10/02 04:32:11;;;;;;;11.83;7.40;;;;;;;;;;4892305;29;20195;-73
2023/10/02 04:34:46;;;;;;;13.37;8.33;;;;;;;;;;4896110;29;20206;-73
2023/10/02 04:37:22;;;;;;;12.73;7.70;;;;;;;;;;4896302;29;20183;-73
2023/10/02 04:39:53;;;;;;;10.07;7.43;;;;;;;;;;4895124;29;20218;-73
2023/10/02 04:42:21;;;;;;;10.87;7.50;;;;;;;;;;4892820;29;20259;-73
2023/10/02 04:44:56;;;;;;;11.33;7.63;;;;;;;;;;4893887;29;20187;-73
2023/10/02 04:47:23;;;;;;;11.13;7.63;;;;;;;;;;4895682;29;20698;-73
2023/10/02 04:52:53;;;;;;;11.27;7.40;;;;;;;;;;4891359;29;20210;-73
2023/10/02 04:55:22;;;;;;;10.83;7.67;;;;;;;;;;4894527;29;20250;-73
2023/10/02 04:57:52;;;;;;;10.90;7.00;;;;;;;;;;4893487;29;20222;-73
2023/10/02 05:00:34;;;;;;;11.83;7.40;;;;;;;;;;4892896;29;20278;-73
2023/10/02 05:05:51;;;;;;;12.13;7.60;;;;;;;;;;4891461;29;20451;-74
2023/10/02 05:08:19;;;;;;;10.87;6.93;;;;;;;;;;4891750;29;20352;-74
2023/10/02 05:11:05;;;;;;;10.97;6.83;;;;;;;;;;4891721;29;20215;-73
2023/10/02 05:16:19;;;;;;;11.63;7.23;;;;;;;;;;4895584;29;20199;-73
2023/10/02 05:18:47;;;;;;;10.87;6.77;;;;;;;;;;4894820;29;20279;-74
2023/10/02 05:21:17;;;;;;;10.23;6.67;;;;;;;;;;4894567;29;20718;-74
2023/10/02 05:23:56;;;;;;;12.00;7.30;;;;;;;;;;4893724;29;20219;-74
2023/10/02 05:26:42;;;;;;;11.70;7.37;;;;;;;;;;4894653;29;21526;-74
2023/10/02 05:29:17;;;;;;;12.23;7.33;;;;;;;;;;4893798;29;20187;-74
2023/10/02 05:31:45;;;;;;;9.40;6.10;;;;;;;;;;4892706;29;20197;-74
2023/10/02 05:34:21;;;;;;;10.57;6.50;;;;;;;;;;4893283;29;20195;-73
2023/10/02 05:39:46;;;;;;;11.00;6.77;;;;;;;;;;4889555;29;20231;-74
2023/10/02 05:42:15;;;;;;;9.83;6.77;;;;;;;;;;4891684;29;20223;-73
2023/10/02 05:44:42;;;;;;;9.47;6.23;;;;;;;;;;4893882;29;20187;-74
2023/10/02 05:47:08;;;;;;;8.80;6.17;;;;;;;;;;4892552;29;20557;-74
2023/10/02 05:49:48;;;;;;;9.60;6.00;;;;;;;;;;4892756;29;20202;-75
2023/10/02 05:52:23;;;;;;;10.67;6.33;;;;;;;;;;4894159;29;20679;-78
2023/10/02 05:54:53;;;;;;;10.37;6.77;;;;;;;;;;4895582;29;20191;-81
2023/10/02 05:57:20;;;;;;;12.07;6.90;;;;;;;;;;4897127;29;20651;-83
2023/10/02 05:59:48;;;;;;;11.50;6.70;;;;;;;;;;4894293;29;20303;-78
2023/10/02 06:02:17;;;;;;;9.80;6.87;;;;;;;;;;4896464;29;20198;-78
2023/10/02 06:04:47;;;;;;;8.77;6.47;;;;;;;;;;4895720;29;20187;-79
2023/10/02 06:07:19;;;;;;;12.17;7.03;;;;;;;;;;4897098;29;20195;-81
2023/10/02 06:09:48;;;;;;;11.00;6.93;;;;;;;;;;4880910;29;20222;-87
2023/10/02 06:12:15;;;;;;;12.53;7.57;;;;;;;;;;4882032;29;20283;-86
2023/10/02 06:14:45;;;;;;;10.33;7.63;;;;;;;;;;4880876;29;20648;-85
2023/10/02 06:17:12;;;;;;;12.53;7.50;;;;;;;;;;4877344;29;20285;-85
2023/10/02 06:19:42;;;;;;;12.57;7.57;;;;;;;;;;4898199;29;20266;-86
2023/10/02 06:22:09;;;;;;;13.70;7.83;;;;;;;;;;4860768;29;20201;-85
2023/10/02 06:24:36;;;;;;;11.13;7.27;;;;;;;;;;4895667;29;20209;-85
2023/10/02 06:27:12;;;;;;;11.00;7.50;;;;;;;;;;4878995;29;20175;-86
2023/10/02 06:29:39;;;;;;;10.07;7.10;;;;;;;;;;4879194;29;20218;-86
2023/10/02 06:32:09;;;;;;;11.20;6.73;;;;;;;;;;4913882;29;20541;-85
2023/10/02 06:34:37;;;;;;;10.57;6.93;;;;;;;;;;4896129;29;20199;-85
2023/10/02 06:37:13;;;;;;;12.07;6.83;;;;;;;;;;4899120;29;20183;-86
2023/10/02 06:39:41;;;;;;;11.70;7.60;;;;;;;;;;4894552;29;20257;-85
2023/10/02 06:42:12;;;;;;;13.17;7.83;;;;;;;;;;4878896;29;20203;-85
2023/10/02 06:44:52;;;;;;;11.70;7.67;;;;;;;;;;4879780;29;20222;-85
2023/10/02 06:47:21;;;;;;;10.70;6.57;;;;;;;;;;4861273;29;20258;-85
2023/10/02 06:49:47;;;;;;;10.43;6.60;;;;;;;;;;4894150;29;20299;-85
2023/10/02 06:52:16;;;;;;;9.60;6.63;;;;;;;;;;4884265;29;20199;-85
2023/10/02 06:54:48;;;;;;;11.67;7.10;;;;;;;;;;4895462;29;20674;-85
2023/10/02 06:57:18;;;;;;;11.97;7.90;;;;;;;;;;4898926;29;20198;-85
2023/10/02 06:59:51;;;;;;;12.23;7.90;;;;;;;;;;4884037;29;20223;-84
2023/10/02 07:02:18;;;;;;;14.13;7.73;;;;;;;;;;4898288;29;20247;-85
2023/10/02 07:04:47;;;;;;;11.53;7.60;;;;;;;;;;4885319;29;20202;-85
2023/10/02 07:07:14;;;;;;;10.13;6.90;;;;;;;;;;4899188;29;20195;-86
2023/10/02 07:09:40;;;;;;;13.67;7.47;;;;;;;;;;4885452;29;20222;-84
2023/10/02 07:12:13;;;;;;;11.80;7.63;;;;;;;;;;4898178;29;20195;-85
2023/10/02 07:14:41;;;;;;;13.17;7.67;;;;;;;;;;4897376;29;20195;-85
2023/10/02 07:17:16;;;;;;;11.30;7.67;;;;;;;;;;4882765;29;20199;-85
2023/10/02 07:19:51;;;;;;;12.40;8.57;;;;;;;;;;4899523;29;20233;-85
2023/10/02 07:22:23;;;;;;;13.40;7.90;;;;;;;;;;4883185;29;20198;-86
2023/10/02 07:24:52;;;;;;;13.67;8.10;;;;;;;;;;4898242;29;20195;-86
2023/10/02 07:27:23;;;;;;;15.97;8.40;;;;;;;;;;4893598;29;20199;-84
2023/10/02 07:29:59;;;;;;;12.43;8.10;;;;;;;;;;4881616;29;20298;-85
2023/10/02 07:32:27;;;;;;;10.90;7.37;;;;;;;;;;4867355;29;20194;-85
2023/10/02 07:34:54;;;;;;;12.43;7.50;;;;;;;;;;4897472;29;20199;-85
2023/10/02 07:37:24;;;;;;;14.23;7.73;;;;;;;;;;4867442;29;20285;-86
2023/10/02 07:40:02;;;;;;;11.17;7.70;;;;;;;;;;4880505;29;20684;-86
2023/10/02 07:42:29;;;;;;;12.20;8.23;;;;;;;;;;4897565;29;20202;-86
2023/10/02 07:44:56;;;;;;;14.73;8.47;;;;;;;;;;4882941;29;20195;-85
2023/10/02 07:47:23;;;;;;;12.97;8.27;;;;;;;;;;4914051;29;20698;-82
2023/10/02 07:49:58;;;;;;;12.87;8.00;;;;;;;;;;4895977;29;20356;-86
2023/10/02 07:52:35;;;;;;;14.97;8.13;;;;;;;;;;4895477;29;20190;-85
2023/10/02 07:55:01;;;;;;;13.30;8.27;;;;;;;;;;4891863;29;20194;-85
2023/10/02 07:57:32;;;;;;;14.27;8.00;;;;;;;;;;4882180;29;20254;-84
2023/10/02 08:00:05;;;;;;;13.53;8.30;;;;;;;;;;4889817;29;20270;-86
2023/10/02 08:02:33;;;;;;;13.83;8.77;;;;;;;;;;4898512;29;20226;-84
2023/10/02 08:05:04;;;;;;;14.43;9.00;;;;;;;;;;4891776;29;20199;-86
2023/10/02 08:07:30;;;;;;;12.27;8.60;;;;;;;;;;4897404;29;20244;-86
2023/10/02 08:09:58;;;;;;;13.67;8.57;;;;;;;;;;4881973;29;20207;-86
2023/10/02 08:12:30;;;;;;;12.93;8.00;;;;;;;;;;4894447;29;20200;-86
2023/10/02 08:14:59;;;;;;;11.67;7.47;;;;;;;;;;4896512;29;20187;-86
2023/10/02 08:19:59;;;;;;;13.13;7.93;;;;;;;;;;4898038;29;20207;-85
2023/10/02 08:22:35;;;;;;;10.53;7.13;;;;;;;;;;4873622;29;20195;-86
2023/10/02 08:25:02;;;;;;;14.27;7.93;;;;;;;;;;4912340;29;20191;-85
2023/10/02 08:27:32;;;;;;;12.10;8.17;;;;;;;;;;4868674;29;20191;-86
2023/10/02 08:30:01;;;;;;;12.70;7.83;;;;;;;;;;4877780;29;20209;-85
2023/10/02 08:32:31;;;;;;;13.00;8.17;;;;;;;;;;4880964;29;20218;-86
2023/10/02 08:34:57;;;;;;;13.57;8.27;;;;;;;;;;4911956;29;20183;-87
2023/10/02 08:37:25;;;;;;;14.83;8.73;;;;;;;;;;4882362;29;20214;-86
2023/10/02 08:39:51;;;;;;;12.83;7.83;;;;;;;;;;4881293;29;20630;-86
2023/10/02 08:42:18;;;;;;;13.60;8.67;;;;;;;;;;4896416;29;20555;-85
2023/10/02 08:44:44;;;;;;;14.47;8.50;;;;;;;;;;4895036;29;20196;-87
2023/10/02 08:47:12;;;;;;;11.67;8.17;;;;;;;;;;4880925;29;20637;-87
2023/10/02 08:49:41;;;;;;;13.53;8.20;;;;;;;;;;4880198;29;20217;-87
2023/10/02 08:52:11;;;;;;;14.47;8.17;;;;;;;;;;4897464;29;20751;-86
2023/10/02 08:54:42;;;;;;;12.47;8.00;;;;;;;;;;4896364;29;20198;-87
2023/10/02 08:57:09;;;;;;;13.00;8.73;;;;;;;;;;4895830;29;20191;-87
2023/10/02 08:59:39;;;;;;;12.83;8.37;;;;;;;;;;4877385;29;20222;-86
2023/10/02 09:02:16;;;;;;;15.00;8.70;;;;;;;;;;4895931;29;20187;-87
2023/10/02 09:05:06;;;;;;;16.27;8.97;;;;;;;;;;4864299;29;20457;-85
2023/10/02 09:07:45;;;;;;;15.17;8.83;;;;;;;;;;4883832;29;20246;-85
2023/10/02 09:10:18;;;;;;;12.53;8.20;;;;;;;;;;4890427;29;20219;-87
2023/10/02 09:12:51;;;;;;;14.53;8.57;;;;;;;;;;4894665;29;20279;-85
2023/10/02 09:15:35;;;;;;;13.50;8.40;;;;;;;;;;4873221;29;20207;-86
2023/10/02 09:18:19;;;;;;;11.33;7.30;;;;;;;;;;4896268;29;20219;-87
2023/10/02 09:21:13;;;;;;;15.17;8.90;;;;;;;;;;4878442;29;20579;-87
2023/10/02 09:23:49;;;;;;;15.57;9.23;;;;;;;;;;4880243;29;20187;-86
2023/10/02 09:26:16;;;;;;;17.47;8.93;;;;;;;;;;4911407;29;20249;-87
2023/10/02 09:28:56;;;;;;;14.33;8.83;;;;;;;;;;4864777;29;20195;-86
2023/10/02 09:31:24;;;;;;;13.90;8.67;;;;;;;;;;4875281;29;20202;-87
2023/10/02 09:33:51;;;;;;;13.83;8.47;;;;;;;;;;4910708;29;20346;-86
2023/10/02 09:36:19;;;;;;;15.40;8.43;;;;;;;;;;4895653;29;20211;-87
2023/10/02 09:38:46;;;;;;;13.93;8.73;;;;;;;;;;4864391;29;20229;-85
2023/10/02 09:41:20;;;;;;;14.27;8.60;;;;;;;;;;4910603;29;20211;-87
2023/10/02 09:43:49;;;;;;;13.40;8.07;;;;;;;;;;4894865;29;20216;-87
2023/10/02 09:46:15;;;;;;;14.67;8.37;;;;;;;;;;4880148;29;20196;-87
2023/10/02 09:48:56;;;;;;;12.53;8.00;;;;;;;;;;4895671;29;20187;-86
2023/10/02 09:51:25;;;;;;;16.47;8.83;;;;;;;;;;4891242;29;20199;-86
2023/10/02 09:54:17;;;;;;;16.70;8.87;;;;;;;;;;4865373;29;20213;-86
2023/10/02 09:57:13;;;;;;;15.83;8.63;;;;;;;;;;4894935;29;20199;-86
2023/10/02 09:59:54;;;;;;;12.83;7.87;;;;;;;;;;4895717;29;20226;-86
2023/10/02 10:07:54;;;;;;;13.40;7.47;;;;;;;;;;4891500;29;20191;-87
2023/10/02 10:13:37;;;;;;;13.20;8.33;;;;;;;;;;4889776;29;20301;-86
2023/10/02 10:16:23;;;;;;;14.13;8.17;;;;;;;;;;4892188;29;20189;-86
2023/10/02 10:19:26;;;;;;;15.73;8.23;;;;;;;;;;4896575;29;20302;-87
2023/10/02 10:22:03;;;;;;;13.50;8.30;;;;;;;;;;4894880;29;20180;-85
2023/10/02 10:24:34;;;;;;;13.93;8.47;;;;;;;;;;4880339;29;20195;-85
2023/10/02 10:27:03;;;;;;;15.43;8.57;;;;;;;;;;4866456;29;20187;-87
2023/10/02 10:29:42;;;;;;;12.27;7.83;;;;;;;;;;4878798;29;20215;-85
2023/10/02 10:32:16;;;;;;;14.33;8.33;;;;;;;;;;4910677;29;20598;-87
2023/10/02 10:35:11;;;;;;;12.60;8.03;;;;;;;;;;4890351;29;20282;-86
2023/10/02 10:37:42;;;;;;;13.63;8.13;;;;;;;;;;4879745;29;20526;-87
2023/10/02 10:40:43;;;;;;;16.67;8.37;;;;;;;;;;4868570;29;20211;-85
2023/10/02 10:43:00;;;;;;;15.30;8.93;;;;;;;;;;4895563;29;20252;-85
2023/10/02 10:45:33;;;;;;;14.70;8.50;;;;;;;;;;4900639;29;20191;-85
2023/10/02 10:47:59;;;;;;;12.23;7.43;;;;;;;;;;4889123;29;20210;-83
2023/10/02 10:50:29;;;;;;;16.63;8.43;;;;;;;;;;4895705;29;20226;-85
2023/10/02 10:53:25;;;;;;;14.33;8.20;;;;;;;;;;4911254;29;20206;-85
2023/10/02 10:55:47;;;;;;;14.30;8.40;;;;;;;;;;4896224;29;20222;-85
2023/10/02 10:58:13;;;;;;;15.07;9.17;;;;;;;;;;4881894;29;20228;-86
2023/10/02 11:00:41;;;;;;;14.23;8.73;;;;;;;;;;4885879;29;20204;-86
2023/10/02 11:03:08;;;;;;;15.40;8.60;;;;;;;;;;4895413;29;20187;-86
2023/10/02 11:05:35;;;;;;;12.37;8.17;;;;;;;;;;4895058;29;20199;-87
2023/10/02 11:08:25;;;;;;;15.17;8.40;;;;;;;;;;4896092;29;20278;-86
2023/10/02 11:11:19;;;;;;;14.87;8.00;;;;;;;;;;4878364;29;20571;-86
2023/10/02 11:14:01;;;;;;;14.03;8.77;;;;;;;;;;4896274;29;20198;-86
2023/10/02 11:16:31;;;;;;;13.23;8.10;;;;;;;;;;4895110;29;20195;-86
2023/10/02 11:19:13;;;;;;;14.53;8.80;;;;;;;;;;4899921;29;20218;-87
2023/10/02 11:21:46;;;;;;;11.93;8.13;;;;;;;;;;4868851;29;20251;-86
2023/10/02 11:24:20;;;;;;;13.80;8.70;;;;;;;;;;4897731;29;20199;-86
2023/10/02 11:26:46;;;;;;;13.13;7.97;;;;;;;;;;4877676;29;20191;-86
2023/10/02 11:29:22;;;;;;;16.30;8.53;;;;;;;;;;4882819;29;20666;-86
2023/10/02 11:32:19;;;;;;;12.90;8.43;;;;;;;;;;4893390;29;20188;-86
2023/10/02 11:34:49;;;;;;;13.00;8.47;;;;;;;;;;4860084;29;20197;-86
2023/10/02 11:37:16;;;;;;;14.40;8.47;;;;;;;;;;4853139;29;20279;-86
2023/10/02 11:39:43;;;;;;;13.03;8.20;;;;;;;;;;4885149;29;20224;-87
2023/10/02 11:42:10;;;;;;;12.97;8.17;;;;;;;;;;4897393;29;20205;-87
2023/10/02 11:44:39;;;;;;;13.20;8.47;;;;;;;;;;4917443;29;20202;-89
2023/10/02 11:47:09;;;;;;;15.17;8.23;;;;;;;;;;4877431;29;20183;-86
2023/10/02 11:49:36;;;;;;;15.23;8.17;;;;;;;;;;4899023;29;20577;-85
2023/10/02 11:52:03;;;;;;;16.80;8.87;;;;;;;;;;4899608;29;20191;-85
2023/10/02 11:54:35;;;;;;;13.93;8.80;;;;;;;;;;4900348;29;20183;-84
2023/10/02 11:57:02;;;;;;;14.53;9.13;;;;;;;;;;4898816;29;20198;-86
2023/10/02 11:59:31;;;;;;;12.33;8.33;;;;;;;;;;4881771;29;20245;-85
2023/10/02 12:01:57;;;;;;;13.00;8.50;;;;;;;;;;4896924;29;20187;-86
2023/10/02 12:04:26;;;;;;;11.80;8.47;;;;;;;;;;4882048;29;20199;-85
2023/10/02 12:06:54;;;;;;;11.70;8.37;;;;;;;;;;4881502;29;20201;-86
2023/10/02 12:09:25;;;;;;;12.53;8.67;;;;;;;;;;4884295;29;20215;-84
2023/10/02 12:11:51;;;;;;;13.90;9.23;;;;;;;;;;4899725;29;20199;-85
2023/10/02 12:14:18;;;;;;;12.23;8.67;;;;;;;;;;4895879;29;20263;-84
2023/10/02 12:16:44;;;;;;;14.33;9.17;;;;;;;;;;4880736;29;20203;-82
2023/10/02 12:19:11;;;;;;;12.93;9.10;;;;;;;;;;4896472;29;20213;-86
2023/10/02 12:21:37;;;;;;;13.63;9.13;;;;;;;;;;4894117;29;20184;-79
2023/10/02 12:24:05;;;;;;;13.47;8.90;;;;;;;;;;4892348;29;20188;-85
2023/10/02 12:26:32;;;;;;;12.10;8.53;;;;;;;;;;4895702;29;20253;-85
2023/10/02 12:29:00;;;;;;;13.67;9.10;;;;;;;;;;4896928;29;20287;-84
2023/10/02 12:31:27;;;;;;;12.53;8.97;;;;;;;;;;4895707;29;20208;-84
2023/10/02 12:33:53;;;;;;;13.90;8.93;;;;;;;;;;4880675;29;20656;-85
2023/10/02 12:36:21;;;;;;;13.00;8.63;;;;;;;;;;4876446;29;20561;-85
2023/10/02 12:38:49;;;;;;;12.73;8.93;;;;;;;;;;4880419;29;20307;-85
2023/10/02 12:41:22;;;;;;;15.50;9.50;;;;;;;;;;4869461;29;20214;-85
2023/10/02 12:43:56;;;;;;;14.37;9.70;;;;;;;;;;4893917;29;20235;-84
2023/10/02 12:46:25;;;;;;;15.33;9.73;;;;;;;;;;4877808;29;20192;-85
2023/10/02 12:48:51;;;;;;;11.17;8.70;;;;;;;;;;4909007;29;20249;-85
2023/10/02 12:51:19;;;;;;;13.60;9.23;;;;;;;;;;4872405;29;20295;-85
2023/10/02 12:53:45;;;;;;;11.40;8.63;;;;;;;;;;4891638;29;20204;-86
2023/10/02 12:56:15;;;;;;;11.73;8.70;;;;;;;;;;4877489;29;20661;-85
2023/10/02 12:58:42;;;;;;;13.67;9.53;;;;;;;;;;4880065;29;20226;-85
2023/10/02 13:01:13;;;;;;;12.27;8.77;;;;;;;;;;4888353;29;20714;-85
2023/10/02 13:03:42;;;;;;;13.73;9.20;;;;;;;;;;4882920;29;20660;-85
2023/10/02 13:06:12;;;;;;;13.23;9.67;;;;;;;;;;4890105;29;20201;-85
2023/10/02 13:08:47;;;;;;;14.43;9.50;;;;;;;;;;4911566;29;20203;-86
2023/10/02 13:11:18;;;;;;;12.00;8.97;;;;;;;;;;4891192;29;20215;-86
2023/10/02 13:13:46;;;;;;;12.63;8.90;;;;;;;;;;4896829;29;20191;-85
2023/10/02 13:16:13;;;;;;;13.47;9.67;;;;;;;;;;4889687;29;20200;-86
2023/10/02 13:18:40;;;;;;;12.20;9.50;;;;;;;;;;4896809;29;20661;-86
2023/10/02 13:21:10;;;;;;;14.73;9.50;;;;;;;;;;4894981;29;20226;-86
2023/10/02 13:23:37;;;;;;;13.00;9.37;;;;;;;;;;4877041;29;20198;-85
2023/10/02 13:26:08;;;;;;;13.53;9.53;;;;;;;;;;4857580;29;20848;-86
2023/10/02 13:28:34;;;;;;;13.43;9.53;;;;;;;;;;4883370;29;20971;-86
2023/10/02 13:31:13;;;;;;;10.70;8.97;;;;;;;;;;4892796;29;20214;-86
2023/10/02 13:33:52;;;;;;;15.07;9.20;;;;;;;;;;4880483;29;20273;-85
2023/10/02 13:36:22;;;;;;;12.70;9.33;;;;;;;;;;4856123;29;20686;-88
2023/10/02 13:38:53;;;;;;;13.43;9.67;;;;;;;;;;4895360;29;20222;-84
2023/10/02 13:41:19;;;;;;;12.87;9.63;;;;;;;;;;4894800;29;20187;-87
2023/10/02 13:43:47;;;;;;;14.70;9.50;;;;;;;;;;4890504;29;20222;-86
2023/10/02 13:46:17;;;;;;;11.90;9.20;;;;;;;;;;4894020;29;20196;-87
2023/10/02 13:48:44;;;;;;;13.90;10.03;;;;;;;;;;4862538;29;20233;-86
2023/10/02 13:51:11;;;;;;;15.07;10.03;;;;;;;;;;4892214;29;20547;-86
2023/10/02 13:53:37;;;;;;;12.87;9.50;;;;;;;;;;4905259;29;20666;-87
2023/10/02 13:56:09;;;;;;;14.40;10.07;;;;;;;;;;4887079;29;20190;-87
2023/10/02 13:58:39;;;;;;;14.57;10.17;;;;;;;;;;4879081;29;20221;-86
2023/10/02 14:01:06;;;;;;;13.23;10.30;;;;;;;;;;4872881;29;20272;-86
2023/10/02 14:03:33;;;;;;;14.53;10.40;;;;;;;;;;4893988;29;20190;-86
2023/10/02 14:06:02;;;;;;;14.87;11.00;;;;;;;;;;4888995;29;20215;-85
2023/10/02 14:08:28;;;;;;;16.90;10.87;;;;;;;;;;4883829;29;20229;-86
2023/10/02 14:10:55;;;;;;;13.83;10.30;;;;;;;;;;4881539;29;20223;-86
2023/10/02 14:13:21;;;;;;;14.13;11.30;;;;;;;;;;4875109;29;20199;-86
2023/10/02 14:15:47;;;;;;;16.13;11.63;;;;;;;;;;4888763;29;20204;-86
2023/10/02 14:18:14;;;;;;;13.87;10.67;;;;;;;;;;4877922;29;20219;-84
2023/10/02 14:20:40;;;;;;;13.10;10.40;;;;;;;;;;4874851;29;20291;-83
2023/10/02 14:23:06;;;;;;;14.93;10.70;;;;;;;;;;4879357;29;20202;-83
2023/10/02 14:25:33;;;;;;;13.03;10.93;;;;;;;;;;4879713;29;20195;-83
2023/10/02 14:28:00;;;;;;;15.40;11.13;;;;;;;;;;4863468;29;20322;-83
2023/10/02 14:30:26;;;;;;;15.00;10.73;;;;;;;;;;4878301;29;20215;-83
2023/10/02 14:32:52;;;;;;;14.77;10.87;;;;;;;;;;4868933;29;20196;-85
2023/10/02 14:35:19;;;;;;;14.40;11.10;;;;;;;;;;4894462;29;20202;-84
2023/10/02 14:37:52;;;;;;;14.23;11.07;;;;;;;;;;4894008;29;20196;-85
2023/10/02 14:40:30;;;;;;;14.70;11.00;;;;;;;;;;4888381;29;20231;-84
2023/10/02 14:42:57;;;;;;;13.80;10.37;;;;;;;;;;4871613;29;20215;-84
2023/10/02 14:45:27;;;;;;;13.87;10.67;;;;;;;;;;4870742;29;20210;-87
2023/10/02 14:47:56;;;;;;;17.13;11.00;;;;;;;;;;4863413;29;20236;-87
2023/10/02 14:50:23;;;;;;;14.23;10.17;;;;;;;;;;4893790;29;20771;-86
2023/10/02 14:52:50;;;;;;;12.97;10.23;;;;;;;;;;4874567;29;20285;-86
2023/10/02 14:55:17;;;;;;;12.43;9.53;;;;;;;;;;4894506;29;20194;-86
2023/10/02 14:57:45;;;;;;;16.53;10.90;;;;;;;;;;4892563;29;20205;-85
2023/10/02 15:00:13;;;;;;;16.33;11.20;;;;;;;;;;4894996;29;20258;-86
2023/10/02 15:02:41;;;;;;;15.27;9.47;;;;;;;;;;4878571;29;20206;-86
2023/10/02 15:05:07;;;;;;;15.40;10.53;;;;;;;;;;4870508;29;20204;-85
2023/10/02 15:07:36;;;;;;;13.17;9.60;;;;;;;;;;4877344;29;20188;-86
2023/10/02 15:10:03;;;;;;;13.53;9.70;;;;;;;;;;4894014;29;20686;-86
2023/10/02 15:12:30;;;;;;;13.80;9.93;;;;;;;;;;4910292;29;20563;-86
2023/10/02 15:14:56;;;;;;;15.33;10.23;;;;;;;;;;4892958;29;20243;-86
2023/10/02 15:17:22;;;;;;;16.13;10.37;;;;;;;;;;4894376;29;20197;-86
2023/10/02 15:19:48;;;;;;;16.13;10.33;;;;;;;;;;4897994;29;20290;-85
2023/10/02 15:22:15;;;;;;;15.93;10.77;;;;;;;;;;4879788;29;20182;-86
2023/10/02 15:24:41;;;;;;;16.77;10.73;;;;;;;;;;4865116;29;20199;-85